Main page
METAR-TAF:

METAR-TAF

Airports :

Huesca–Pirineos Airport

Huesca, Spain

latitude: 42-04-32N, longitude: 0-18-58W, elevation: 539 m

Current weather observation

The report was made 15 minutes ago, at 23:00 UTC
Wind 8 kt from the West/Northwest
Temperature 12°C
Humidity 76%
Pressure 1024 hPa
Visibility 10 km or more
no clouds below 1500 m and no cumulonimbus

METAR: LEHC 282300Z AUTO 29008KT CAVOK 12/08 Q1024

Time: 00:15 (23:15 UTC)

Forecast

The report was made 9 hours and 15 minutes ago, at 14:00 UTC
Forecast valid from 28 at 15 UTC to 29 at 15 UTC
Wind 8 kt from the West
Visibility 10 km or more
Few clouds at a height of 2500 ft
Becoming
from 28 at 16 UTC to 28 at 19 UTC
Wind 7 kt from the North
Becoming
from 28 at 20 UTC to 28 at 23 UTC
Wind 3 kt from variable directions
Probability 30% :
Temporary
from 29 at 00 UTC to 29 at 07 UTC
Visibility: 3000 m
mist

TAF: LEHC 281400Z 2815/2915 26008KT 9999 FEW025 TX19/2913Z TN06/2905Z BECMG 2816/2819 35007KT BECMG 2820/2823 VRB03KT PROB30 TEMPO 2900/2907 3000 BR

Weather observations and forecasts of more than 4000 airports (METAR and TAF reports).

The available stations are represented by yellow and red dots on the map.

Hover mouse over dot to see the name of the station.

Then click to see weather observations and forecasts.

To change the map : click on the green buttons with a black cross to zoom in, on the green button with a dash to zoom out, or on the green arrows for adjacent maps.


METAR-TAF: